sensor_id;sensor_type;location;lat;lon;timestamp;P1;durP1;ratioP1;P2;durP2;ratioP2
63089;SDS011;49174;43.198;27.824;2023-07-13T00:01:17;5.75;;;4.97;;
63089;SDS011;49174;43.198;27.824;2023-07-13T00:03:43;9.13;;;6.22;;
63089;SDS011;49174;43.198;27.824;2023-07-13T00:06:09;7.70;;;6.20;;
63089;SDS011;49174;43.198;27.824;2023-07-13T00:08:34;8.65;;;6.45;;
63089;SDS011;49174;43.198;27.824;2023-07-13T00:11:01;9.52;;;6.43;;
63089;SDS011;49174;43.198;27.824;2023-07-13T00:13:28;8.73;;;7.18;;
63089;SDS011;49174;43.198;27.824;2023-07-13T00:15:54;10.00;;;7.35;;
63089;SDS011;49174;43.198;27.824;2023-07-13T00:18:22;8.05;;;6.35;;
63089;SDS011;49174;43.198;27.824;2023-07-13T00:20:48;9.10;;;7.13;;
63089;SDS011;49174;43.198;27.824;2023-07-13T00:23:14;9.27;;;7.38;;
63089;SDS011;49174;43.198;27.824;2023-07-13T00:25:39;7.97;;;6.07;;
63089;SDS011;49174;43.198;27.824;2023-07-13T00:28:05;11.27;;;6.75;;
63089;SDS011;49174;43.198;27.824;2023-07-13T00:30:30;7.05;;;6.30;;
63089;SDS011;49174;43.198;27.824;2023-07-13T00:32:56;7.18;;;6.22;;
63089;SDS011;49174;43.198;27.824;2023-07-13T00:35:25;10.82;;;6.88;;
63089;SDS011;49174;43.198;27.824;2023-07-13T00:37:50;10.43;;;6.45;;
63089;SDS011;49174;43.198;27.824;2023-07-13T00:40:16;11.63;;;6.45;;
63089;SDS011;49174;43.198;27.824;2023-07-13T00:42:41;9.48;;;7.00;;
63089;SDS011;49174;43.198;27.824;2023-07-13T00:47:39;12.02;;;6.50;;
63089;SDS011;49174;43.198;27.824;2023-07-13T00:50:06;10.82;;;7.18;;
63089;SDS011;49174;43.198;27.824;2023-07-13T00:52:38;11.35;;;7.25;;
63089;SDS011;49174;43.198;27.824;2023-07-13T00:55:07;13.68;;;6.60;;
63089;SDS011;49174;43.198;27.824;2023-07-13T00:57:34;7.43;;;5.97;;
63089;SDS011;49174;43.198;27.824;2023-07-13T01:00:00;9.52;;;7.30;;
63089;SDS011;49174;43.198;27.824;2023-07-13T01:02:31;9.73;;;6.50;;
63089;SDS011;49174;43.198;27.824;2023-07-13T01:04:58;10.00;;;6.68;;
63089;SDS011;49174;43.198;27.824;2023-07-13T01:07:23;7.63;;;6.47;;
63089;SDS011;49174;43.198;27.824;2023-07-13T01:09:49;10.25;;;6.80;;
63089;SDS011;49174;43.198;27.824;2023-07-13T01:12:15;12.40;;;6.63;;
63089;SDS011;49174;43.198;27.824;2023-07-13T01:14:40;8.85;;;7.55;;
63089;SDS011;49174;43.198;27.824;2023-07-13T01:17:08;11.88;;;7.15;;
63089;SDS011;49174;43.198;27.824;2023-07-13T01:22:11;9.57;;;6.55;;
63089;SDS011;49174;43.198;27.824;2023-07-13T01:24:39;10.05;;;6.50;;
63089;SDS011;49174;43.198;27.824;2023-07-13T01:27:08;9.40;;;6.68;;
63089;SDS011;49174;43.198;27.824;2023-07-13T01:29:34;8.00;;;6.32;;
63089;SDS011;49174;43.198;27.824;2023-07-13T01:32:08;12.20;;;6.95;;
63089;SDS011;49174;43.198;27.824;2023-07-13T01:34:35;8.45;;;6.47;;
63089;SDS011;49174;43.198;27.824;2023-07-13T01:37:02;7.30;;;6.35;;
63089;SDS011;49174;43.198;27.824;2023-07-13T01:39:29;8.30;;;6.93;;
63089;SDS011;49174;43.198;27.824;2023-07-13T01:41:54;8.85;;;6.47;;
63089;SDS011;49174;43.198;27.824;2023-07-13T01:44:21;9.63;;;6.63;;
63089;SDS011;49174;43.198;27.824;2023-07-13T01:46:47;8.95;;;6.40;;
63089;SDS011;49174;43.198;27.824;2023-07-13T01:49:12;8.18;;;6.60;;
63089;SDS011;49174;43.198;27.824;2023-07-13T01:51:37;8.75;;;6.68;;
63089;SDS011;49174;43.198;27.824;2023-07-13T01:54:03;8.18;;;6.13;;
63089;SDS011;49174;43.198;27.824;2023-07-13T01:56:28;7.88;;;6.70;;
63089;SDS011;49174;43.198;27.824;2023-07-13T01:58:54;9.38;;;6.32;;
63089;SDS011;49174;43.198;27.824;2023-07-13T02:01:19;8.27;;;6.05;;
63089;SDS011;49174;43.198;27.824;2023-07-13T02:03:46;6.72;;;6.07;;
63089;SDS011;49174;43.198;27.824;2023-07-13T02:06:12;8.77;;;6.05;;
63089;SDS011;49174;43.198;27.824;2023-07-13T02:08:37;8.30;;;6.07;;
63089;SDS011;49174;43.198;27.824;2023-07-13T02:11:03;8.45;;;6.47;;
63089;SDS011;49174;43.198;27.824;2023-07-13T02:13:28;6.82;;;6.13;;
63089;SDS011;49174;43.198;27.824;2023-07-13T02:15:54;8.70;;;7.10;;
63089;SDS011;49174;43.198;27.824;2023-07-13T02:18:20;12.00;;;6.60;;
63089;SDS011;49174;43.198;27.824;2023-07-13T02:20:45;7.70;;;6.40;;
63089;SDS011;49174;43.198;27.824;2023-07-13T02:23:11;7.53;;;6.72;;
63089;SDS011;49174;43.198;27.824;2023-07-13T02:25:37;7.80;;;5.85;;
63089;SDS011;49174;43.198;27.824;2023-07-13T02:28:03;8.05;;;6.32;;
63089;SDS011;49174;43.198;27.824;2023-07-13T02:30:28;7.40;;;6.18;;
63089;SDS011;49174;43.198;27.824;2023-07-13T02:32:55;9.02;;;6.20;;
63089;SDS011;49174;43.198;27.824;2023-07-13T02:35:21;7.80;;;6.22;;
63089;SDS011;49174;43.198;27.824;2023-07-13T02:37:47;8.00;;;6.38;;
63089;SDS011;49174;43.198;27.824;2023-07-13T02:40:13;10.93;;;7.82;;
63089;SDS011;49174;43.198;27.824;2023-07-13T02:42:38;10.18;;;6.47;;
63089;SDS011;49174;43.198;27.824;2023-07-13T02:45:04;7.47;;;6.70;;
63089;SDS011;49174;43.198;27.824;2023-07-13T02:47:31;8.10;;;7.22;;
63089;SDS011;49174;43.198;27.824;2023-07-13T02:49:57;10.15;;;7.63;;
63089;SDS011;49174;43.198;27.824;2023-07-13T02:52:23;8.30;;;6.85;;
63089;SDS011;49174;43.198;27.824;2023-07-13T02:54:49;8.63;;;7.60;;
63089;SDS011;49174;43.198;27.824;2023-07-13T02:57:15;9.43;;;7.85;;
63089;SDS011;49174;43.198;27.824;2023-07-13T02:59:41;9.82;;;7.15;;
63089;SDS011;49174;43.198;27.824;2023-07-13T03:02:06;13.27;;;7.53;;
63089;SDS011;49174;43.198;27.824;2023-07-13T03:04:32;10.80;;;7.72;;
63089;SDS011;49174;43.198;27.824;2023-07-13T03:06:57;14.23;;;7.93;;
63089;SDS011;49174;43.198;27.824;2023-07-13T03:09:24;12.75;;;8.32;;
63089;SDS011;49174;43.198;27.824;2023-07-13T03:11:52;9.13;;;8.00;;
63089;SDS011;49174;43.198;27.824;2023-07-13T03:14:19;11.38;;;8.02;;
63089;SDS011;49174;43.198;27.824;2023-07-13T03:16:46;10.82;;;8.60;;
63089;SDS011;49174;43.198;27.824;2023-07-13T03:19:12;12.77;;;8.60;;
63089;SDS011;49174;43.198;27.824;2023-07-13T03:21:37;12.00;;;9.50;;
63089;SDS011;49174;43.198;27.824;2023-07-13T03:24:03;12.25;;;9.43;;
63089;SDS011;49174;43.198;27.824;2023-07-13T03:26:28;14.80;;;9.50;;
63089;SDS011;49174;43.198;27.824;2023-07-13T03:28:54;18.95;;;10.85;;
63089;SDS011;49174;43.198;27.824;2023-07-13T03:31:22;13.65;;;9.77;;
63089;SDS011;49174;43.198;27.824;2023-07-13T03:33:50;14.25;;;10.63;;
63089;SDS011;49174;43.198;27.824;2023-07-13T03:36:17;15.07;;;10.77;;
63089;SDS011;49174;43.198;27.824;2023-07-13T03:38:49;12.30;;;9.60;;
63089;SDS011;49174;43.198;27.824;2023-07-13T03:41:16;11.55;;;9.55;;
63089;SDS011;49174;43.198;27.824;2023-07-13T03:43:42;11.13;;;9.38;;
63089;SDS011;49174;43.198;27.824;2023-07-13T03:46:08;12.18;;;10.35;;
63089;SDS011;49174;43.198;27.824;2023-07-13T03:48:34;13.82;;;9.38;;
63089;SDS011;49174;43.198;27.824;2023-07-13T03:51:00;13.50;;;9.88;;
63089;SDS011;49174;43.198;27.824;2023-07-13T03:53:25;14.43;;;10.75;;
63089;SDS011;49174;43.198;27.824;2023-07-13T03:55:51;11.77;;;9.70;;
63089;SDS011;49174;43.198;27.824;2023-07-13T03:58:50;15.55;;;10.65;;
63089;SDS011;49174;43.198;27.824;2023-07-13T04:01:09;13.13;;;10.43;;
63089;SDS011;49174;43.198;27.824;2023-07-13T04:03:37;15.60;;;10.05;;
63089;SDS011;49174;43.198;27.824;2023-07-13T04:06:04;14.10;;;11.18;;
63089;SDS011;49174;43.198;27.824;2023-07-13T04:08:32;15.80;;;11.02;;
63089;SDS011;49174;43.198;27.824;2023-07-13T04:10:59;12.10;;;10.77;;
63089;SDS011;49174;43.198;27.824;2023-07-13T04:13:26;12.57;;;10.00;;
63089;SDS011;49174;43.198;27.824;2023-07-13T04:15:52;14.32;;;10.68;;
63089;SDS011;49174;43.198;27.824;2023-07-13T04:18:18;12.20;;;9.52;;
63089;SDS011;49174;43.198;27.824;2023-07-13T04:20:45;12.88;;;9.85;;
63089;SDS011;49174;43.198;27.824;2023-07-13T04:23:11;11.82;;;10.35;;
63089;SDS011;49174;43.198;27.824;2023-07-13T04:25:37;16.50;;;11.30;;
63089;SDS011;49174;43.198;27.824;2023-07-13T04:28:03;12.52;;;10.98;;
63089;SDS011;49174;43.198;27.824;2023-07-13T04:30:31;17.25;;;12.88;;
63089;SDS011;49174;43.198;27.824;2023-07-13T04:32:56;17.15;;;10.60;;
63089;SDS011;49174;43.198;27.824;2023-07-13T04:35:24;18.30;;;13.20;;
63089;SDS011;49174;43.198;27.824;2023-07-13T04:37:50;16.65;;;12.35;;
63089;SDS011;49174;43.198;27.824;2023-07-13T04:40:18;20.05;;;13.45;;
63089;SDS011;49174;43.198;27.824;2023-07-13T04:42:45;17.88;;;13.75;;
63089;SDS011;49174;43.198;27.824;2023-07-13T04:45:12;23.83;;;14.13;;
63089;SDS011;49174;43.198;27.824;2023-07-13T04:47:39;18.50;;;13.25;;
63089;SDS011;49174;43.198;27.824;2023-07-13T04:50:05;18.00;;;13.05;;
63089;SDS011;49174;43.198;27.824;2023-07-13T04:52:31;13.98;;;11.50;;
63089;SDS011;49174;43.198;27.824;2023-07-13T04:54:58;15.60;;;11.90;;
63089;SDS011;49174;43.198;27.824;2023-07-13T04:57:25;14.63;;;11.73;;
63089;SDS011;49174;43.198;27.824;2023-07-13T04:59:51;15.38;;;11.25;;
63089;SDS011;49174;43.198;27.824;2023-07-13T05:02:17;16.73;;;13.38;;
63089;SDS011;49174;43.198;27.824;2023-07-13T05:04:45;23.30;;;13.57;;
63089;SDS011;49174;43.198;27.824;2023-07-13T05:07:11;20.98;;;12.57;;
63089;SDS011;49174;43.198;27.824;2023-07-13T05:09:37;17.33;;;13.43;;
63089;SDS011;49174;43.198;27.824;2023-07-13T05:12:02;22.25;;;14.02;;
63089;SDS011;49174;43.198;27.824;2023-07-13T05:14:28;22.58;;;14.18;;
63089;SDS011;49174;43.198;27.824;2023-07-13T05:16:54;24.23;;;14.35;;
63089;SDS011;49174;43.198;27.824;2023-07-13T05:19:19;21.92;;;13.98;;
63089;SDS011;49174;43.198;27.824;2023-07-13T05:21:45;21.85;;;13.93;;
63089;SDS011;49174;43.198;27.824;2023-07-13T05:24:10;24.05;;;14.00;;
63089;SDS011;49174;43.198;27.824;2023-07-13T05:26:36;21.05;;;12.80;;
63089;SDS011;49174;43.198;27.824;2023-07-13T05:29:01;20.25;;;13.73;;
63089;SDS011;49174;43.198;27.824;2023-07-13T05:31:27;21.42;;;13.18;;
63089;SDS011;49174;43.198;27.824;2023-07-13T05:33:53;19.75;;;14.25;;
63089;SDS011;49174;43.198;27.824;2023-07-13T05:36:18;19.20;;;13.85;;
63089;SDS011;49174;43.198;27.824;2023-07-13T05:38:44;20.38;;;15.60;;
63089;SDS011;49174;43.198;27.824;2023-07-13T05:41:09;20.35;;;16.88;;
63089;SDS011;49174;43.198;27.824;2023-07-13T05:43:35;21.25;;;14.32;;
63089;SDS011;49174;43.198;27.824;2023-07-13T05:46:00;18.20;;;14.10;;
63089;SDS011;49174;43.198;27.824;2023-07-13T05:48:26;20.20;;;14.55;;
63089;SDS011;49174;43.198;27.824;2023-07-13T05:50:51;15.05;;;12.65;;
63089;SDS011;49174;43.198;27.824;2023-07-13T05:53:17;17.88;;;11.80;;
63089;SDS011;49174;43.198;27.824;2023-07-13T05:55:43;14.55;;;11.35;;
63089;SDS011;49174;43.198;27.824;2023-07-13T05:58:10;15.10;;;10.52;;
63089;SDS011;49174;43.198;27.824;2023-07-13T06:00:36;15.15;;;11.52;;
63089;SDS011;49174;43.198;27.824;2023-07-13T06:03:02;10.82;;;9.70;;
63089;SDS011;49174;43.198;27.824;2023-07-13T06:05:27;12.93;;;10.40;;
63089;SDS011;49174;43.198;27.824;2023-07-13T06:07:54;13.10;;;9.50;;
63089;SDS011;49174;43.198;27.824;2023-07-13T06:10:20;12.27;;;10.27;;
63089;SDS011;49174;43.198;27.824;2023-07-13T06:12:45;10.95;;;8.73;;
63089;SDS011;49174;43.198;27.824;2023-07-13T06:15:11;9.35;;;7.65;;
63089;SDS011;49174;43.198;27.824;2023-07-13T06:17:36;9.55;;;8.13;;
63089;SDS011;49174;43.198;27.824;2023-07-13T06:20:02;9.35;;;7.53;;
63089;SDS011;49174;43.198;27.824;2023-07-13T06:22:28;10.23;;;7.45;;
63089;SDS011;49174;43.198;27.824;2023-07-13T06:24:53;9.27;;;7.72;;
63089;SDS011;49174;43.198;27.824;2023-07-13T06:27:19;8.60;;;7.70;;
63089;SDS011;49174;43.198;27.824;2023-07-13T06:29:44;9.57;;;7.72;;
63089;SDS011;49174;43.198;27.824;2023-07-13T06:32:10;8.40;;;7.57;;
63089;SDS011;49174;43.198;27.824;2023-07-13T06:34:36;9.35;;;7.50;;
63089;SDS011;49174;43.198;27.824;2023-07-13T06:37:01;11.23;;;7.70;;
63089;SDS011;49174;43.198;27.824;2023-07-13T06:39:27;9.88;;;7.75;;
63089;SDS011;49174;43.198;27.824;2023-07-13T06:41:52;8.77;;;7.82;;
63089;SDS011;49174;43.198;27.824;2023-07-13T06:44:18;13.68;;;8.27;;
63089;SDS011;49174;43.198;27.824;2023-07-13T06:46:43;11.20;;;8.27;;
63089;SDS011;49174;43.198;27.824;2023-07-13T06:49:09;9.13;;;8.23;;
63089;SDS011;49174;43.198;27.824;2023-07-13T06:51:34;9.90;;;7.90;;
63089;SDS011;49174;43.198;27.824;2023-07-13T06:54:00;9.43;;;7.90;;
63089;SDS011;49174;43.198;27.824;2023-07-13T06:56:25;11.00;;;7.82;;
63089;SDS011;49174;43.198;27.824;2023-07-13T06:58:51;9.20;;;7.50;;
63089;SDS011;49174;43.198;27.824;2023-07-13T07:01:16;9.52;;;7.03;;
63089;SDS011;49174;43.198;27.824;2023-07-13T07:03:42;10.50;;;7.43;;
63089;SDS011;49174;43.198;27.824;2023-07-13T07:08:41;9.68;;;8.07;;
63089;SDS011;49174;43.198;27.824;2023-07-13T07:11:14;11.57;;;8.27;;
63089;SDS011;49174;43.198;27.824;2023-07-13T07:13:41;10.45;;;7.95;;
63089;SDS011;49174;43.198;27.824;2023-07-13T07:16:07;9.60;;;8.02;;
63089;SDS011;49174;43.198;27.824;2023-07-13T07:18:34;9.70;;;7.93;;
63089;SDS011;49174;43.198;27.824;2023-07-13T07:20:59;14.85;;;7.45;;
63089;SDS011;49174;43.198;27.824;2023-07-13T07:23:25;10.50;;;7.30;;
63089;SDS011;49174;43.198;27.824;2023-07-13T07:25:51;10.25;;;7.53;;
63089;SDS011;49174;43.198;27.824;2023-07-13T07:28:17;13.05;;;7.38;;
63089;SDS011;49174;43.198;27.824;2023-07-13T07:30:47;9.02;;;8.05;;
63089;SDS011;49174;43.198;27.824;2023-07-13T07:33:14;12.38;;;7.78;;
63089;SDS011;49174;43.198;27.824;2023-07-13T07:35:42;9.02;;;7.95;;
63089;SDS011;49174;43.198;27.824;2023-07-13T07:38:08;9.07;;;8.10;;
63089;SDS011;49174;43.198;27.824;2023-07-13T07:40:37;10.43;;;7.53;;
63089;SDS011;49174;43.198;27.824;2023-07-13T07:43:05;8.27;;;7.47;;
63089;SDS011;49174;43.198;27.824;2023-07-13T07:45:34;12.98;;;7.57;;
63089;SDS011;49174;43.198;27.824;2023-07-13T07:48:00;7.38;;;6.63;;
63089;SDS011;49174;43.198;27.824;2023-07-13T07:50:26;9.60;;;7.70;;
63089;SDS011;49174;43.198;27.824;2023-07-13T07:52:53;8.77;;;7.20;;
63089;SDS011;49174;43.198;27.824;2023-07-13T07:55:21;11.18;;;7.95;;
63089;SDS011;49174;43.198;27.824;2023-07-13T07:57:47;9.30;;;7.93;;
63089;SDS011;49174;43.198;27.824;2023-07-13T08:00:13;9.77;;;8.75;;
63089;SDS011;49174;43.198;27.824;2023-07-13T08:02:39;9.52;;;8.13;;
63089;SDS011;49174;43.198;27.824;2023-07-13T08:05:06;8.13;;;7.32;;
63089;SDS011;49174;43.198;27.824;2023-07-13T08:07:36;8.38;;;7.00;;
63089;SDS011;49174;43.198;27.824;2023-07-13T08:10:05;10.63;;;7.03;;
63089;SDS011;49174;43.198;27.824;2023-07-13T08:12:38;11.57;;;8.05;;
63089;SDS011;49174;43.198;27.824;2023-07-13T08:15:06;8.10;;;7.30;;
63089;SDS011;49174;43.198;27.824;2023-07-13T08:17:34;11.35;;;6.68;;
63089;SDS011;49174;43.198;27.824;2023-07-13T08:19:59;10.20;;;6.78;;
63089;SDS011;49174;43.198;27.824;2023-07-13T08:22:25;9.70;;;6.75;;
63089;SDS011;49174;43.198;27.824;2023-07-13T08:24:50;10.50;;;6.55;;
63089;SDS011;49174;43.198;27.824;2023-07-13T08:27:24;8.75;;;7.85;;
63089;SDS011;49174;43.198;27.824;2023-07-13T08:29:50;12.13;;;8.00;;
63089;SDS011;49174;43.198;27.824;2023-07-13T08:32:17;8.80;;;7.45;;
63089;SDS011;49174;43.198;27.824;2023-07-13T08:34:44;11.77;;;7.63;;
63089;SDS011;49174;43.198;27.824;2023-07-13T08:37:09;10.48;;;7.18;;
63089;SDS011;49174;43.198;27.824;2023-07-13T08:39:35;11.63;;;7.40;;
63089;SDS011;49174;43.198;27.824;2023-07-13T08:42:03;9.05;;;7.85;;
63089;SDS011;49174;43.198;27.824;2023-07-13T08:47:19;9.73;;;7.38;;
63089;SDS011;49174;43.198;27.824;2023-07-13T08:49:47;11.85;;;7.70;;
63089;SDS011;49174;43.198;27.824;2023-07-13T08:52:18;8.63;;;7.55;;
63089;SDS011;49174;43.198;27.824;2023-07-13T08:55:04;11.60;;;8.63;;
63089;SDS011;49174;43.198;27.824;2023-07-13T08:57:37;9.60;;;8.55;;
63089;SDS011;49174;43.198;27.824;2023-07-13T09:00:05;9.63;;;7.72;;
63089;SDS011;49174;43.198;27.824;2023-07-13T09:02:38;13.73;;;7.55;;
63089;SDS011;49174;43.198;27.824;2023-07-13T09:10:35;10.13;;;7.70;;
63089;SDS011;49174;43.198;27.824;2023-07-13T09:15:58;8.70;;;7.22;;
63089;SDS011;49174;43.198;27.824;2023-07-13T09:18:29;8.73;;;7.50;;
63089;SDS011;49174;43.198;27.824;2023-07-13T09:21:00;7.78;;;6.97;;
63089;SDS011;49174;43.198;27.824;2023-07-13T09:23:29;11.07;;;7.13;;
63089;SDS011;49174;43.198;27.824;2023-07-13T09:26:15;10.65;;;7.97;;
63089;SDS011;49174;43.198;27.824;2023-07-13T09:28:45;11.27;;;7.63;;
63089;SDS011;49174;43.198;27.824;2023-07-13T09:31:15;12.27;;;7.72;;
63089;SDS011;49174;43.198;27.824;2023-07-13T09:33:41;7.95;;;7.15;;
63089;SDS011;49174;43.198;27.824;2023-07-13T09:36:18;8.70;;;7.05;;
63089;SDS011;49174;43.198;27.824;2023-07-13T09:38:44;9.70;;;7.15;;
63089;SDS011;49174;43.198;27.824;2023-07-13T09:41:19;8.25;;;7.38;;
63089;SDS011;49174;43.198;27.824;2023-07-13T09:44:01;9.30;;;7.25;;
63089;SDS011;49174;43.198;27.824;2023-07-13T09:46:34;8.23;;;6.80;;
63089;SDS011;49174;43.198;27.824;2023-07-13T09:49:00;9.73;;;7.63;;
63089;SDS011;49174;43.198;27.824;2023-07-13T09:51:25;8.27;;;6.70;;
63089;SDS011;49174;43.198;27.824;2023-07-13T09:53:51;7.90;;;7.05;;
63089;SDS011;49174;43.198;27.824;2023-07-13T09:56:25;8.90;;;7.45;;
63089;SDS011;49174;43.198;27.824;2023-07-13T09:58:54;7.93;;;7.13;;
63089;SDS011;49174;43.198;27.824;2023-07-13T10:01:37;8.32;;;7.45;;
63089;SDS011;49174;43.198;27.824;2023-07-13T10:04:12;8.27;;;7.32;;
63089;SDS011;49174;43.198;27.824;2023-07-13T10:06:44;8.45;;;7.05;;
63089;SDS011;49174;43.198;27.824;2023-07-13T10:09:16;7.97;;;6.97;;
63089;SDS011;49174;43.198;27.824;2023-07-13T10:11:43;9.63;;;6.95;;
63089;SDS011;49174;43.198;27.824;2023-07-13T10:14:14;11.15;;;7.50;;
63089;SDS011;49174;43.198;27.824;2023-07-13T10:16:42;8.95;;;7.53;;
63089;SDS011;49174;43.198;27.824;2023-07-13T10:19:18;9.60;;;8.20;;
63089;SDS011;49174;43.198;27.824;2023-07-13T10:22:00;8.45;;;7.65;;
63089;SDS011;49174;43.198;27.824;2023-07-13T10:24:32;8.95;;;7.82;;
63089;SDS011;49174;43.198;27.824;2023-07-13T10:29:46;8.95;;;7.75;;
63089;SDS011;49174;43.198;27.824;2023-07-13T10:32:13;8.73;;;7.38;;
63089;SDS011;49174;43.198;27.824;2023-07-13T10:34:43;9.52;;;8.38;;
63089;SDS011;49174;43.198;27.824;2023-07-13T10:37:18;9.60;;;8.60;;
63089;SDS011;49174;43.198;27.824;2023-07-13T10:39:47;9.02;;;8.10;;
63089;SDS011;49174;43.198;27.824;2023-07-13T10:42:17;9.57;;;7.93;;
63089;SDS011;49174;43.198;27.824;2023-07-13T10:44:52;10.15;;;8.73;;
63089;SDS011;49174;43.198;27.824;2023-07-13T10:47:18;8.82;;;7.60;;
63089;SDS011;49174;43.198;27.824;2023-07-13T10:49:44;8.65;;;7.85;;
63089;SDS011;49174;43.198;27.824;2023-07-13T10:58:22;12.40;;;8.30;;
63089;SDS011;49174;43.198;27.824;2023-07-13T11:03:23;8.57;;;7.78;;
63089;SDS011;49174;43.198;27.824;2023-07-13T11:06:04;12.13;;;8.25;;
63089;SDS011;49174;43.198;27.824;2023-07-13T11:08:35;9.20;;;7.85;;
63089;SDS011;49174;43.198;27.824;2023-07-13T11:11:03;10.95;;;8.60;;
63089;SDS011;49174;43.198;27.824;2023-07-13T11:18:47;12.23;;;9.00;;
63089;SDS011;49174;43.198;27.824;2023-07-13T11:21:16;12.13;;;8.40;;
63089;SDS011;49174;43.198;27.824;2023-07-13T11:23:44;9.00;;;7.97;;
63089;SDS011;49174;43.198;27.824;2023-07-13T11:29:07;8.77;;;7.88;;
63089;SDS011;49174;43.198;27.824;2023-07-13T11:31:34;17.20;;;8.43;;
63089;SDS011;49174;43.198;27.824;2023-07-13T11:34:00;11.77;;;8.65;;
63089;SDS011;49174;43.198;27.824;2023-07-13T11:36:29;9.75;;;7.78;;
63089;SDS011;49174;43.198;27.824;2023-07-13T11:42:00;12.95;;;7.53;;
63089;SDS011;49174;43.198;27.824;2023-07-13T11:44:29;9.57;;;8.32;;
63089;SDS011;49174;43.198;27.824;2023-07-13T11:47:00;9.30;;;8.30;;
63089;SDS011;49174;43.198;27.824;2023-07-13T11:49:48;11.77;;;8.10;;
63089;SDS011;49174;43.198;27.824;2023-07-13T11:52:17;10.90;;;8.50;;
63089;SDS011;49174;43.198;27.824;2023-07-13T11:54:52;11.10;;;8.85;;
63089;SDS011;49174;43.198;27.824;2023-07-13T12:00:00;9.73;;;8.23;;
63089;SDS011;49174;43.198;27.824;2023-07-13T12:02:32;9.65;;;8.43;;
63089;SDS011;49174;43.198;27.824;2023-07-13T12:05:02;11.70;;;8.20;;
63089;SDS011;49174;43.198;27.824;2023-07-13T12:07:30;11.32;;;8.65;;
63089;SDS011;49174;43.198;27.824;2023-07-13T12:10:40;9.55;;;8.52;;
63089;SDS011;49174;43.198;27.824;2023-07-13T12:12:58;10.70;;;8.60;;
63089;SDS011;49174;43.198;27.824;2023-07-13T12:15:39;9.23;;;8.13;;
63089;SDS011;49174;43.198;27.824;2023-07-13T12:18:15;9.50;;;8.20;;
63089;SDS011;49174;43.198;27.824;2023-07-13T12:20:45;9.05;;;8.15;;
63089;SDS011;49174;43.198;27.824;2023-07-13T12:23:23;10.15;;;8.32;;
63089;SDS011;49174;43.198;27.824;2023-07-13T12:28:28;10.13;;;7.97;;
63089;SDS011;49174;43.198;27.824;2023-07-13T12:30:59;10.48;;;8.10;;
63089;SDS011;49174;43.198;27.824;2023-07-13T12:33:30;10.88;;;7.88;;
63089;SDS011;49174;43.198;27.824;2023-07-13T12:35:58;10.80;;;8.32;;
63089;SDS011;49174;43.198;27.824;2023-07-13T12:38:27;8.73;;;7.93;;
63089;SDS011;49174;43.198;27.824;2023-07-13T12:40:53;12.52;;;8.18;;
63089;SDS011;49174;43.198;27.824;2023-07-13T12:43:20;9.93;;;8.32;;
63089;SDS011;49174;43.198;27.824;2023-07-13T12:46:01;11.15;;;8.30;;
63089;SDS011;49174;43.198;27.824;2023-07-13T12:48:28;11.73;;;7.70;;
63089;SDS011;49174;43.198;27.824;2023-07-13T12:50:54;9.70;;;8.35;;
63089;SDS011;49174;43.198;27.824;2023-07-13T12:53:22;8.63;;;7.80;;
63089;SDS011;49174;43.198;27.824;2023-07-13T12:55:54;10.80;;;8.20;;
63089;SDS011;49174;43.198;27.824;2023-07-13T12:58:37;8.32;;;7.53;;
63089;SDS011;49174;43.198;27.824;2023-07-13T13:01:07;12.05;;;8.15;;
63089;SDS011;49174;43.198;27.824;2023-07-13T13:03:36;8.88;;;7.50;;
63089;SDS011;49174;43.198;27.824;2023-07-13T13:08:44;10.35;;;7.68;;
63089;SDS011;49174;43.198;27.824;2023-07-13T13:11:17;8.77;;;7.85;;
63089;SDS011;49174;43.198;27.824;2023-07-13T13:13:43;13.38;;;7.53;;
63089;SDS011;49174;43.198;27.824;2023-07-13T13:16:13;10.70;;;7.82;;
63089;SDS011;49174;43.198;27.824;2023-07-13T13:18:43;8.88;;;7.97;;
63089;SDS011;49174;43.198;27.824;2023-07-13T13:21:09;14.52;;;7.55;;
63089;SDS011;49174;43.198;27.824;2023-07-13T13:23:36;9.32;;;7.13;;
63089;SDS011;49174;43.198;27.824;2023-07-13T13:26:02;9.18;;;7.40;;
63089;SDS011;49174;43.198;27.824;2023-07-13T13:28:28;8.02;;;7.22;;
63089;SDS011;49174;43.198;27.824;2023-07-13T13:30:54;9.75;;;7.57;;
63089;SDS011;49174;43.198;27.824;2023-07-13T13:33:20;9.60;;;7.40;;
63089;SDS011;49174;43.198;27.824;2023-07-13T13:35:47;10.00;;;7.88;;
63089;SDS011;49174;43.198;27.824;2023-07-13T13:38:21;10.23;;;8.52;;
63089;SDS011;49174;43.198;27.824;2023-07-13T13:40:51;7.80;;;7.00;;
63089;SDS011;49174;43.198;27.824;2023-07-13T13:43:18;10.05;;;7.50;;
63089;SDS011;49174;43.198;27.824;2023-07-13T13:45:51;8.82;;;7.80;;
63089;SDS011;49174;43.198;27.824;2023-07-13T13:48:19;10.75;;;7.20;;
63089;SDS011;49174;43.198;27.824;2023-07-13T13:50:52;8.60;;;7.30;;
63089;SDS011;49174;43.198;27.824;2023-07-13T13:53:18;7.97;;;7.10;;
63089;SDS011;49174;43.198;27.824;2023-07-13T13:55:43;10.45;;;7.30;;
63089;SDS011;49174;43.198;27.824;2023-07-13T13:58:09;8.32;;;7.45;;
63089;SDS011;49174;43.198;27.824;2023-07-13T14:00:36;10.52;;;7.38;;
63089;SDS011;49174;43.198;27.824;2023-07-13T14:03:03;11.00;;;8.02;;
63089;SDS011;49174;43.198;27.824;2023-07-13T14:05:29;9.52;;;7.97;;
63089;SDS011;49174;43.198;27.824;2023-07-13T14:07:55;10.35;;;7.65;;
63089;SDS011;49174;43.198;27.824;2023-07-13T14:10:24;8.75;;;7.80;;
63089;SDS011;49174;43.198;27.824;2023-07-13T14:12:52;9.73;;;8.52;;
63089;SDS011;49174;43.198;27.824;2023-07-13T14:15:21;8.50;;;7.63;;
63089;SDS011;49174;43.198;27.824;2023-07-13T14:17:55;11.30;;;7.82;;
63089;SDS011;49174;43.198;27.824;2023-07-13T14:20:23;16.27;;;8.35;;
63089;SDS011;49174;43.198;27.824;2023-07-13T14:22:51;9.80;;;8.45;;
63089;SDS011;49174;43.198;27.824;2023-07-13T14:25:18;9.63;;;8.68;;
63089;SDS011;49174;43.198;27.824;2023-07-13T14:27:45;9.10;;;8.00;;
63089;SDS011;49174;43.198;27.824;2023-07-13T14:30:15;11.82;;;8.75;;
63089;SDS011;49174;43.198;27.824;2023-07-13T14:32:41;11.15;;;8.45;;
63089;SDS011;49174;43.198;27.824;2023-07-13T14:35:10;10.45;;;8.02;;
63089;SDS011;49174;43.198;27.824;2023-07-13T14:37:37;10.55;;;8.65;;
63089;SDS011;49174;43.198;27.824;2023-07-13T14:40:11;9.20;;;8.00;;
63089;SDS011;49174;43.198;27.824;2023-07-13T14:42:41;13.15;;;8.70;;
63089;SDS011;49174;43.198;27.824;2023-07-13T14:45:12;11.70;;;9.02;;
63089;SDS011;49174;43.198;27.824;2023-07-13T14:47:42;10.80;;;8.95;;
63089;SDS011;49174;43.198;27.824;2023-07-13T14:50:12;9.63;;;8.63;;
63089;SDS011;49174;43.198;27.824;2023-07-13T14:52:41;9.85;;;8.85;;
63089;SDS011;49174;43.198;27.824;2023-07-13T14:55:10;9.77;;;8.88;;
63089;SDS011;49174;43.198;27.824;2023-07-13T14:57:37;12.18;;;9.40;;
63089;SDS011;49174;43.198;27.824;2023-07-13T15:00:03;10.35;;;9.23;;
63089;SDS011;49174;43.198;27.824;2023-07-13T15:02:31;10.88;;;9.77;;
63089;SDS011;49174;43.198;27.824;2023-07-13T15:04:59;10.90;;;9.68;;
63089;SDS011;49174;43.198;27.824;2023-07-13T15:07:24;10.23;;;9.23;;
63089;SDS011;49174;43.198;27.824;2023-07-13T15:09:50;14.95;;;11.45;;
63089;SDS011;49174;43.198;27.824;2023-07-13T15:12:16;11.73;;;10.52;;
63089;SDS011;49174;43.198;27.824;2023-07-13T15:14:43;11.05;;;9.70;;
63089;SDS011;49174;43.198;27.824;2023-07-13T15:17:54;11.02;;;10.02;;
63089;SDS011;49174;43.198;27.824;2023-07-13T15:20:06;12.93;;;9.75;;